Terminal Aerodrome Forecast
Issued by NWS

Home | Current Version | Previous Version | Text Only | Print | Product List | Glossary On
Versions: 1 2 3 4 5 6 7 8 9 10 11 12 13 14
000
FTUS42 TJSJ 272300
TAFJBQ
TAF
TJBQ 272340Z 2800/2824 00000KT P6SM VCSH SCT030 BKN070
     FM280400 15003KT P6SM FEW030
     FM281400 07013KT P6SM SCT025 SCT040
     FM282300 09007KT P6SM SCT025
      AMD NOT SKED 2802/2811=

USA.gov is the U.S. government's official web portal to all federal, state and local government web resources and services.